createdAt,value
2022-09-10T00:01:30.770Z,4.61
2022-09-10T00:03:59.239Z,4.61
2022-09-10T00:06:28.405Z,4.59
2022-09-10T00:08:58.523Z,4.55
2022-09-10T00:11:28.638Z,4.52
2022-09-10T00:13:58.060Z,4.49
2022-09-10T00:16:28.388Z,4.47
2022-09-10T00:18:58.294Z,4.43
2022-09-10T00:21:26.647Z,4.40
2022-09-10T00:23:55.163Z,4.36
2022-09-10T00:26:25.961Z,4.35
2022-09-10T00:28:55.381Z,4.34
2022-09-10T00:31:24.238Z,4.34
2022-09-10T00:33:53.349Z,4.33
2022-09-10T00:36:23.435Z,4.32
2022-09-10T00:38:52.652Z,4.32
2022-09-10T00:41:21.521Z,4.33
2022-09-10T00:43:50.287Z,4.36
2022-09-10T00:46:43.315Z,4.39
2022-09-10T00:49:23.059Z,4.43
2022-09-10T00:51:53.318Z,4.44
2022-09-10T00:54:24.855Z,4.43
2022-09-10T00:56:55.114Z,4.45
2022-09-10T00:59:27.296Z,4.49
2022-09-10T01:01:56.494Z,4.50
2022-09-10T01:04:24.832Z,4.52
2022-09-10T01:06:54.590Z,4.56
2022-09-10T01:09:24.598Z,4.62
2022-09-10T01:12:10.794Z,4.69
2022-09-10T01:14:39.082Z,4.77
2022-09-10T01:17:15.239Z,4.82
2022-09-10T01:20:02.503Z,4.88
2022-09-10T01:22:37.016Z,4.96
2022-09-10T01:25:15.286Z,5.04
2022-09-10T01:27:45.994Z,5.13
2022-09-10T01:30:21.876Z,5.21
2022-09-10T01:33:11.288Z,5.27
2022-09-10T01:35:50.704Z,5.34
2022-09-10T01:38:26.254Z,5.43
2022-09-10T01:40:55.860Z,5.54
2022-09-10T01:43:26.017Z,5.67
2022-09-10T01:46:20.016Z,5.80
2022-09-10T01:48:50.400Z,5.95
2022-09-10T01:51:37.678Z,6.10
2022-09-10T01:54:26.002Z,6.57
2022-09-10T01:57:04.837Z,7.60
2022-09-10T01:59:44.672Z,8.41
2022-09-10T02:02:17.809Z,9.17
2022-09-10T02:04:48.274Z,10.14
2022-09-10T02:07:18.681Z,10.81
2022-09-10T02:09:47.247Z,11.37
2022-09-10T02:12:20.263Z,11.41
2022-09-10T02:15:09.664Z,11.17
2022-09-10T02:18:07.440Z,11.28
2022-09-10T02:20:35.693Z,11.45
2022-09-10T02:23:05.919Z,11.72
2022-09-10T02:25:35.553Z,11.83
2022-09-10T02:28:05.267Z,12.14
2022-09-10T02:30:33.929Z,12.22
2022-09-10T02:33:02.277Z,12.34
2022-09-10T02:35:31.954Z,12.70
2022-09-10T02:38:02.547Z,12.89
2022-09-10T02:40:32.357Z,12.93
2022-09-10T02:43:00.583Z,13.02
2022-09-10T02:45:30.571Z,13.00
2022-09-10T02:47:59.465Z,12.92
2022-09-10T02:50:28.169Z,12.84
2022-09-10T02:52:58.608Z,12.52
2022-09-10T02:55:27.143Z,12.35
2022-09-10T02:57:56.208Z,12.04
2022-09-10T03:00:25.026Z,11.81
2022-09-10T03:02:53.582Z,11.65
2022-09-10T03:05:22.952Z,11.54
2022-09-10T03:07:52.053Z,11.55
2022-09-10T03:10:21.479Z,11.66
2022-09-10T03:12:50.053Z,11.57
2022-09-10T03:15:21.136Z,11.55
2022-09-10T03:17:51.674Z,11.44
2022-09-10T03:20:23.705Z,11.39
2022-09-10T03:22:52.346Z,11.41
2022-09-10T03:25:20.779Z,11.49
2022-09-10T03:27:49.153Z,11.57
2022-09-10T03:30:17.460Z,11.61
2022-09-10T03:32:45.634Z,11.75
2022-09-10T03:35:16.555Z,11.88
2022-09-10T03:37:45.068Z,12.00
2022-09-10T03:40:13.314Z,12.12
2022-09-10T03:42:41.862Z,12.36
2022-09-10T03:45:11.724Z,12.50
2022-09-10T03:47:41.035Z,12.66
2022-09-10T03:50:09.763Z,12.84
2022-09-10T03:52:38.084Z,13.02
2022-09-10T03:55:06.892Z,13.22
2022-09-10T03:57:35.144Z,13.43
2022-09-10T04:00:03.955Z,13.65
2022-09-10T04:02:43.067Z,13.81
2022-09-10T04:05:13.324Z,13.94
2022-09-10T04:07:41.656Z,14.11
2022-09-10T04:10:10.387Z,14.22
2022-09-10T04:12:38.644Z,14.32
2022-09-10T04:15:07.380Z,14.45
2022-09-10T04:17:35.712Z,14.62
2022-09-10T04:20:04.703Z,14.76
2022-09-10T04:22:35.281Z,14.85
2022-09-10T04:25:03.791Z,14.96
2022-09-10T04:27:32.624Z,15.00
2022-09-10T04:30:01.532Z,14.97
2022-09-10T04:32:29.871Z,14.95
2022-09-10T04:34:59.853Z,14.93
2022-09-10T04:37:28.563Z,14.90
2022-09-10T04:39:57.170Z,14.94
2022-09-10T04:42:25.796Z,14.93
2022-09-10T04:44:55.075Z,14.97
2022-09-10T04:47:23.870Z,14.98
2022-09-10T04:49:53.340Z,14.97
2022-09-10T04:52:23.435Z,15.09
2022-09-10T04:54:53.322Z,15.21
2022-09-10T04:57:21.642Z,15.27
2022-09-10T04:59:49.849Z,15.27
2022-09-10T05:02:19.338Z,15.37
2022-09-10T05:04:51.301Z,15.50
2022-09-10T05:07:19.556Z,15.66
2022-09-10T05:09:47.850Z,15.81
2022-09-10T05:12:20.567Z,15.90
2022-09-10T05:14:49.768Z,15.94
2022-09-10T05:17:18.366Z,15.98
2022-09-10T05:19:46.487Z,16.09
2022-09-10T05:22:14.918Z,16.08
2022-09-10T05:24:44.990Z,16.16
2022-09-10T05:27:13.455Z,16.22
2022-09-10T05:29:41.606Z,16.35
2022-09-10T05:32:11.234Z,16.44
2022-09-10T05:34:40.744Z,16.55
2022-09-10T05:37:09.651Z,16.67
2022-09-10T05:39:38.214Z,16.68
2022-09-10T05:42:06.997Z,16.72
2022-09-10T05:44:38.800Z,16.85
2022-09-10T05:47:07.388Z,16.96
2022-09-10T05:49:35.771Z,17.05
2022-09-10T05:52:04.828Z,17.12
2022-09-10T05:54:33.818Z,17.26
2022-09-10T05:57:02.447Z,17.35
2022-09-10T05:59:32.134Z,17.46
2022-09-10T06:02:00.451Z,17.58
2022-09-10T06:04:30.440Z,17.61
2022-09-10T06:06:59.293Z,17.61
2022-09-10T06:09:27.646Z,17.68
2022-09-10T06:12:07.343Z,17.80
2022-09-10T06:14:36.861Z,17.90
2022-09-10T06:17:05.452Z,17.93
2022-09-10T06:19:34.194Z,18.02
2022-09-10T06:22:02.669Z,18.12
2022-09-10T06:24:34.967Z,18.23
2022-09-10T06:27:03.241Z,18.25
2022-09-10T06:29:37.399Z,18.41
2022-09-10T06:32:06.911Z,18.55
2022-09-10T06:34:36.548Z,18.61
2022-09-10T06:37:06.775Z,18.71
2022-09-10T06:39:38.298Z,18.70
2022-09-10T06:42:07.945Z,18.68
2022-09-10T06:44:54.615Z,18.68
2022-09-10T06:50:38.345Z,18.97
2022-09-10T06:53:07.655Z,19.07
2022-09-10T06:55:36.226Z,19.17
2022-09-10T06:58:04.892Z,19.20
2022-09-10T07:00:34.176Z,19.28
2022-09-10T07:03:03.866Z,19.26
2022-09-10T07:05:36.030Z,19.17
2022-09-10T07:08:06.098Z,19.10
2022-09-10T07:10:34.998Z,18.65
2022-09-10T07:13:03.183Z,18.47
2022-09-10T07:15:32.580Z,18.71
2022-09-10T07:18:01.896Z,18.91
2022-09-10T07:20:31.008Z,19.01
2022-09-10T07:23:00.215Z,18.81
2022-09-10T07:25:30.128Z,18.73
2022-09-10T07:28:04.943Z,18.95
2022-09-10T07:30:36.724Z,19.26
2022-09-10T07:33:05.304Z,19.42
2022-09-10T07:35:37.469Z,19.59
2022-09-10T07:38:07.771Z,19.70
2022-09-10T07:40:40.975Z,19.74
2022-09-10T07:43:10.517Z,19.74
2022-09-10T07:45:40.784Z,19.36
2022-09-10T07:48:12.656Z,18.88
2022-09-10T07:50:41.671Z,18.47
2022-09-10T07:53:12.464Z,18.19
2022-09-10T07:55:40.686Z,17.95
2022-09-10T07:58:11.004Z,17.76
2022-09-10T08:00:43.678Z,17.86
2022-09-10T08:03:12.510Z,18.29
2022-09-10T08:05:41.630Z,18.70
2022-09-10T08:08:11.253Z,19.06
2022-09-10T08:10:40.907Z,19.23
2022-09-10T08:13:10.899Z,19.28
2022-09-10T08:15:45.387Z,19.42
2022-09-10T08:18:14.474Z,19.46
2022-09-10T08:20:43.051Z,19.44
2022-09-10T08:23:11.517Z,19.60
2022-09-10T08:25:39.843Z,19.81
2022-09-10T08:28:09.210Z,19.71
2022-09-10T08:30:38.236Z,19.59
2022-09-10T08:33:06.949Z,19.22
2022-09-10T08:35:36.352Z,18.98
2022-09-10T08:38:04.639Z,18.68
2022-09-10T08:40:33.465Z,18.51
2022-09-10T08:43:02.485Z,18.26
2022-09-10T08:45:33.509Z,18.14
2022-09-10T08:48:07.803Z,18.04
2022-09-10T08:50:50.701Z,17.88
2022-09-10T08:53:23.713Z,17.77
2022-09-10T08:55:53.837Z,17.71
2022-09-10T08:58:26.475Z,17.62
2022-09-10T09:00:58.679Z,17.56
2022-09-10T09:03:34.605Z,17.52
2022-09-10T09:06:03.651Z,17.49
2022-09-10T09:08:43.209Z,17.67
2022-09-10T09:11:30.118Z,18.01
2022-09-10T09:14:04.484Z,18.30
2022-09-10T09:16:48.036Z,18.51
2022-09-10T09:19:32.304Z,18.43
2022-09-10T09:22:23.947Z,18.36
2022-09-10T09:24:58.977Z,18.43
2022-09-10T09:27:30.783Z,18.50
2022-09-10T09:30:02.646Z,18.56
2022-09-10T09:32:38.019Z,18.67
2022-09-10T09:35:24.792Z,18.78
2022-09-10T09:38:17.340Z,18.97
2022-09-10T09:40:50.439Z,18.93
2022-09-10T09:43:24.613Z,18.80
2022-09-10T09:45:55.393Z,18.70
2022-09-10T09:48:33.125Z,18.61
2022-09-10T09:51:02.337Z,18.62
2022-09-10T09:53:31.766Z,18.55
2022-09-10T09:56:01.576Z,18.47
2022-09-10T09:58:31.135Z,18.33
2022-09-10T10:01:08.892Z,18.15
2022-09-10T10:03:59.421Z,18.17
2022-09-10T10:06:31.938Z,18.19
2022-09-10T10:09:08.282Z,18.19
2022-09-10T10:11:41.606Z,18.10
2022-09-10T10:14:32.934Z,18.07
2022-09-10T10:17:01.688Z,18.19
2022-09-10T10:19:30.083Z,18.22
2022-09-10T10:22:00.714Z,18.26
2022-09-10T10:24:33.627Z,18.21
2022-09-10T10:27:01.897Z,18.15
2022-09-10T10:29:30.048Z,18.08
2022-09-10T10:32:01.551Z,17.93
2022-09-10T10:34:32.018Z,17.77
2022-09-10T10:37:15.357Z,17.76
2022-09-10T10:40:04.430Z,17.72
2022-09-10T10:42:39.628Z,17.74
2022-09-10T10:45:20.153Z,17.69
2022-09-10T10:47:55.278Z,17.71
2022-09-10T10:50:34.277Z,17.64
2022-09-10T10:53:21.903Z,17.62
2022-09-10T10:56:02.658Z,17.62
2022-09-10T10:58:41.434Z,17.63
2022-09-10T11:01:26.563Z,17.70
2022-09-10T11:04:13.733Z,17.57
2022-09-10T11:06:44.649Z,17.57
2022-09-10T11:09:45.069Z,17.59
2022-09-10T11:12:17.728Z,17.65
2022-09-10T11:14:45.997Z,17.65
2022-09-10T11:17:35.719Z,17.59
2022-09-10T11:20:28.414Z,17.58
2022-09-10T11:23:06.877Z,17.55
2022-09-10T11:25:38.679Z,17.55
2022-09-10T11:28:16.320Z,17.57
2022-09-10T11:30:48.982Z,17.56
2022-09-10T11:33:28.457Z,17.54
2022-09-10T11:36:08.901Z,17.46
2022-09-10T11:38:59.614Z,17.38
2022-09-10T11:41:30.814Z,17.32
2022-09-10T11:44:36.362Z,17.24
2022-09-10T11:47:05.069Z,17.18
2022-09-10T11:49:54.053Z,17.02
2022-09-10T11:52:24.151Z,16.97
2022-09-10T11:54:53.162Z,16.87
2022-09-10T11:57:33.914Z,16.78
2022-09-10T12:00:18.343Z,16.71
2022-09-10T12:03:14.001Z,16.61
2022-09-10T12:05:43.154Z,16.54
2022-09-10T12:08:18.205Z,16.52
2022-09-10T12:10:54.133Z,16.51
2022-09-10T12:13:23.274Z,16.47
2022-09-10T12:15:54.124Z,16.45
2022-09-10T12:18:29.080Z,16.48
2022-09-10T12:21:00.340Z,16.42
2022-09-10T12:23:31.209Z,16.42
2022-09-10T12:25:59.517Z,16.37
2022-09-10T12:28:42.913Z,16.33
2022-09-10T12:31:15.893Z,16.27
2022-09-10T12:33:47.091Z,16.24
2022-09-10T12:36:35.381Z,16.20
2022-09-10T12:39:22.121Z,16.16
2022-09-10T12:41:53.901Z,16.08
2022-09-10T12:44:25.698Z,15.99
2022-09-10T12:47:12.683Z,15.90
2022-09-10T12:49:56.540Z,15.79
2022-09-10T12:52:27.491Z,15.67
2022-09-10T12:55:02.907Z,15.54
2022-09-10T12:57:37.419Z,15.37
2022-09-10T13:00:22.817Z,15.21
2022-09-10T13:02:54.322Z,15.07
2022-09-10T13:05:26.471Z,14.92
2022-09-10T13:08:00.227Z,14.77
2022-09-10T13:10:29.855Z,14.63
2022-09-10T13:13:01.466Z,14.50
2022-09-10T13:15:32.293Z,14.36
2022-09-10T13:18:00.718Z,14.20
2022-09-10T13:20:32.270Z,14.07
2022-09-10T13:23:04.685Z,13.93
2022-09-10T13:25:37.651Z,13.72
2022-09-10T13:28:26.295Z,13.56
2022-09-10T13:31:10.954Z,13.41
2022-09-10T13:33:54.256Z,13.24
2022-09-10T13:36:43.977Z,13.09
2022-09-10T13:39:15.132Z,12.97
2022-09-10T13:41:43.436Z,12.86
2022-09-10T13:44:34.416Z,12.76
2022-09-10T13:47:10.917Z,12.61
2022-09-10T13:49:53.781Z,12.44
2022-09-10T13:52:41.363Z,12.32
2022-09-10T13:55:09.717Z,12.19
2022-09-10T13:57:42.263Z,12.07
2022-09-10T14:00:13.508Z,11.97
2022-09-10T14:02:46.372Z,11.89
2022-09-10T14:05:34.551Z,11.83
2022-09-10T14:08:08.454Z,11.72
2022-09-10T14:10:39.323Z,11.59
2022-09-10T14:13:10.041Z,11.44
2022-09-10T14:15:40.122Z,11.37
2022-09-10T14:18:10.221Z,11.29
2022-09-10T14:20:40.185Z,11.15
2022-09-10T14:23:13.533Z,11.00
2022-09-10T14:25:43.392Z,10.86
2022-09-10T14:28:17.692Z,10.77
2022-09-10T14:30:49.826Z,10.69
2022-09-10T14:33:34.414Z,10.62
2022-09-10T14:36:22.504Z,10.60
2022-09-10T14:39:20.656Z,10.52
2022-09-10T14:41:50.069Z,10.40
2022-09-10T14:44:27.263Z,10.30
2022-09-10T14:47:02.703Z,10.17
2022-09-10T14:49:34.786Z,10.02
2022-09-10T14:52:04.287Z,9.93
2022-09-10T14:54:33.666Z,9.91
2022-09-10T14:57:06.045Z,9.85
2022-09-10T14:59:34.357Z,9.80
2022-09-10T15:02:03.713Z,9.77
2022-09-10T15:04:32.542Z,9.72
2022-09-10T15:07:01.488Z,9.63
2022-09-10T15:09:30.078Z,9.54
2022-09-10T15:12:04.106Z,9.52
2022-09-10T15:14:33.498Z,9.48
2022-09-10T15:17:01.754Z,9.44
2022-09-10T15:19:30.281Z,9.36
2022-09-10T15:21:58.726Z,9.29
2022-09-10T15:24:27.006Z,9.22
2022-09-10T15:26:57.386Z,9.17
2022-09-10T15:29:26.927Z,9.10
2022-09-10T15:32:00.112Z,9.06
2022-09-10T15:34:28.847Z,9.04
2022-09-10T15:36:56.910Z,9.00
2022-09-10T15:39:25.216Z,8.99
2022-09-10T15:41:53.326Z,9.00
2022-09-10T15:44:23.366Z,8.91
2022-09-10T15:46:51.965Z,8.84
2022-09-10T15:49:20.145Z,8.76
2022-09-10T15:51:48.518Z,8.71
2022-09-10T15:54:16.868Z,8.67
2022-09-10T15:56:45.414Z,8.62
2022-09-10T15:59:15.286Z,8.59
2022-09-10T16:01:44.057Z,8.57
2022-09-10T16:04:12.378Z,8.55
2022-09-10T16:06:41.506Z,8.52
2022-09-10T16:09:11.489Z,8.50
2022-09-10T16:11:40.749Z,8.47
2022-09-10T16:14:11.886Z,8.43
2022-09-10T16:16:41.727Z,8.45
2022-09-10T16:19:11.766Z,8.40
2022-09-10T16:21:40.102Z,8.39
2022-09-10T16:24:08.854Z,8.39
2022-09-10T16:26:38.795Z,8.35
2022-09-10T16:29:12.795Z,8.31
2022-09-10T16:31:41.221Z,8.27
2022-09-10T16:34:11.605Z,8.23
2022-09-10T16:36:40.413Z,8.19
2022-09-10T16:39:12.926Z,8.16
2022-09-10T16:41:42.043Z,8.13
2022-09-10T16:44:11.787Z,8.10
2022-09-10T16:46:40.273Z,8.08
2022-09-10T16:49:10.787Z,8.10
2022-09-10T16:51:40.055Z,8.14
2022-09-10T16:54:08.538Z,8.21
2022-09-10T16:56:41.387Z,8.23
2022-09-10T16:59:16.828Z,8.22
2022-09-10T17:01:49.007Z,8.23
2022-09-10T17:04:25.990Z,8.28
2022-09-10T17:06:57.069Z,8.33
2022-09-10T17:09:25.756Z,8.33
2022-09-10T17:11:54.368Z,8.37
2022-09-10T17:14:22.733Z,8.38
2022-09-10T17:16:51.158Z,8.34
2022-09-10T17:19:21.249Z,8.28
2022-09-10T17:21:51.967Z,8.24
2022-09-10T17:24:21.616Z,8.23
2022-09-10T17:26:50.437Z,8.24
2022-09-10T17:29:20.671Z,8.26
2022-09-10T17:31:49.279Z,8.26
2022-09-10T17:34:17.677Z,8.27
2022-09-10T17:36:47.165Z,8.27
2022-09-10T17:39:15.968Z,8.33
2022-09-10T17:41:45.482Z,8.35
2022-09-10T17:44:14.268Z,8.38
2022-09-10T17:46:43.287Z,8.40
2022-09-10T17:49:13.939Z,8.38
2022-09-10T17:51:42.848Z,8.40
2022-09-10T17:54:11.420Z,8.40
2022-09-10T17:56:39.941Z,8.39
2022-09-10T17:59:08.128Z,8.35
2022-09-10T18:01:42.006Z,8.34
2022-09-10T18:04:13.343Z,8.31
2022-09-10T18:06:41.529Z,8.29
2022-09-10T18:09:10.440Z,8.23
2022-09-10T18:11:40.648Z,8.15
2022-09-10T18:14:09.688Z,8.08
2022-09-10T18:16:38.552Z,8.03
2022-09-10T18:19:14.443Z,7.97
2022-09-10T18:21:43.188Z,7.87
2022-09-10T18:24:17.927Z,7.81
2022-09-10T18:26:47.672Z,7.73
2022-09-10T18:29:18.497Z,7.68
2022-09-10T18:31:51.748Z,7.62
2022-09-10T18:34:23.908Z,7.62
2022-09-10T18:36:55.924Z,7.64
2022-09-10T18:39:24.938Z,7.65
2022-09-10T18:41:53.564Z,7.64
2022-09-10T18:44:23.503Z,7.63
2022-09-10T18:46:53.428Z,7.62
2022-09-10T18:49:23.823Z,7.62
2022-09-10T18:51:52.883Z,7.60
2022-09-10T18:54:21.845Z,7.59
2022-09-10T18:56:50.269Z,7.57
2022-09-10T18:59:24.062Z,7.54
2022-09-10T19:01:53.596Z,7.54
2022-09-10T19:04:24.521Z,7.54
2022-09-10T19:06:53.249Z,7.46
2022-09-10T19:09:25.492Z,7.38
2022-09-10T19:11:54.773Z,7.36
2022-09-10T19:14:30.525Z,7.31
2022-09-10T19:16:59.923Z,7.25
2022-09-10T19:19:29.248Z,7.19
2022-09-10T19:22:04.027Z,7.13
2022-09-10T19:24:53.510Z,7.11
2022-09-10T19:27:22.011Z,7.09
2022-09-10T19:29:50.889Z,7.01
2022-09-10T19:32:20.368Z,7.03
2022-09-10T19:34:52.272Z,7.05
2022-09-10T19:37:21.529Z,7.01
2022-09-10T19:39:49.965Z,7.00
2022-09-10T19:42:18.522Z,7.01
2022-09-10T19:44:46.684Z,7.00
2022-09-10T19:47:14.894Z,6.95
2022-09-10T19:49:43.012Z,6.88
2022-09-10T19:52:11.785Z,6.81
2022-09-10T19:54:42.456Z,6.83
2022-09-10T19:57:10.753Z,6.83
2022-09-10T19:59:39.924Z,6.84
2022-09-10T20:02:09.930Z,6.83
2022-09-10T20:04:38.336Z,6.82
2022-09-10T20:07:07.129Z,6.74
2022-09-10T20:09:39.654Z,6.63
2022-09-10T20:12:08.980Z,6.58
2022-09-10T20:14:38.046Z,6.59
2022-09-10T20:17:06.629Z,6.61
2022-09-10T20:19:34.883Z,6.59
2022-09-10T20:22:03.380Z,6.57
2022-09-10T20:24:32.165Z,6.57
2022-09-10T20:27:00.636Z,6.61
2022-09-10T20:29:30.265Z,6.66
2022-09-10T20:31:58.499Z,6.69
2022-09-10T20:34:29.778Z,6.68
2022-09-10T20:37:00.683Z,6.67
2022-09-10T20:39:28.897Z,6.65
2022-09-10T20:41:57.447Z,6.63
2022-09-10T20:44:26.642Z,6.59
2022-09-10T20:46:54.973Z,6.59
2022-09-10T20:49:23.237Z,6.61
2022-09-10T20:51:51.661Z,6.58
2022-09-10T20:54:20.067Z,6.63
2022-09-10T20:56:48.732Z,6.63
2022-09-10T20:59:17.505Z,6.62
2022-09-10T21:01:46.720Z,6.60
2022-09-10T21:04:15.770Z,6.56
2022-09-10T21:06:44.136Z,6.57
2022-09-10T21:09:13.025Z,6.58
2022-09-10T21:11:41.275Z,6.58
2022-09-10T21:14:09.449Z,6.56
2022-09-10T21:16:39.452Z,6.58
2022-09-10T21:19:10.277Z,6.60
2022-09-10T21:21:40.053Z,6.64
2022-09-10T21:24:09.522Z,6.67
2022-09-10T21:26:39.843Z,6.68
2022-09-10T21:29:11.392Z,6.67
2022-09-10T21:31:39.774Z,6.69
2022-09-10T21:34:08.082Z,6.73
2022-09-10T21:36:37.749Z,6.78
2022-09-10T21:39:12.782Z,6.81
2022-09-10T21:41:43.234Z,6.86
2022-09-10T21:44:14.732Z,6.88
2022-09-10T21:46:44.033Z,6.88
2022-09-10T21:49:13.153Z,6.88
2022-09-10T21:51:42.131Z,6.84
2022-09-10T21:54:19.224Z,6.81
2022-09-10T21:56:48.224Z,6.82
2022-09-10T21:59:16.771Z,6.83
2022-09-10T22:01:46.482Z,6.86
2022-09-10T22:04:19.948Z,6.86
2022-09-10T22:06:50.813Z,6.86
2022-09-10T22:09:20.602Z,6.86
2022-09-10T22:11:52.040Z,6.85
2022-09-10T22:14:22.243Z,6.83
2022-09-10T22:16:51.154Z,6.81
2022-09-10T22:19:21.301Z,6.83
2022-09-10T22:21:49.541Z,6.84
2022-09-10T22:24:20.636Z,6.83
2022-09-10T22:26:49.194Z,6.85
2022-09-10T22:29:18.492Z,6.85
2022-09-10T22:31:47.663Z,6.84
2022-09-10T22:34:16.834Z,6.85
2022-09-10T22:36:46.681Z,6.89
2022-09-10T22:39:16.692Z,6.89
2022-09-10T22:41:45.337Z,6.92
2022-09-10T22:44:13.777Z,6.94
2022-09-10T22:46:42.247Z,6.93
2022-09-10T22:49:10.785Z,6.99
2022-09-10T22:51:41.565Z,7.00
2022-09-10T22:54:11.450Z,7.03
2022-09-10T22:56:40.624Z,7.03
2022-09-10T22:59:12.171Z,7.05
2022-09-10T23:01:41.282Z,7.08
2022-09-10T23:04:10.686Z,7.12
2022-09-10T23:06:39.516Z,7.13
2022-09-10T23:09:18.256Z,7.16
2022-09-10T23:11:46.839Z,7.21
2022-09-10T23:14:20.125Z,7.25
2022-09-10T23:16:50.067Z,7.26
2022-09-10T23:19:25.736Z,7.31
2022-09-10T23:21:55.833Z,7.32
2022-09-10T23:24:25.706Z,7.36
2022-09-10T23:26:54.760Z,7.38
2022-09-10T23:29:24.275Z,7.41
2022-09-10T23:31:55.859Z,7.44
2022-09-10T23:34:24.958Z,7.45
2022-09-10T23:36:53.552Z,7.46
2022-09-10T23:39:23.147Z,7.45
2022-09-10T23:41:52.982Z,7.42
2022-09-10T23:44:21.708Z,7.39
2022-09-10T23:46:50.097Z,7.35
2022-09-10T23:49:18.551Z,7.29
2022-09-10T23:51:47.245Z,7.23
2022-09-10T23:54:16.047Z,7.18
2022-09-10T23:56:44.961Z,7.14
2022-09-10T23:59:13.259Z,7.13
